Arbuckle, California
Current Conditions -  °F | °C
As of 2:53 AM on Friday 19 Dec 2014 (Local Time) from KMYV Reporting Station
Light Rain Light Rain  
Wind Chill: 53°   Ceiling: 5000
Heat Index: 53°   Visibility: 10mi
Dew Point: 47°   Wind: 13mph
Humidity: 80%   Direction: 140°SE
Pressure: 30.15"   Gusts: NA
Location:  39.02°N, 122.06°W
Report Text: KMYV 191053Z AUTO 14011KT 10SM -RA FEW024 SCT037 OVC050 12/08 A3015 RMK AO2 RAB0959E09B34 SLP214 P0000 T01170083
Loading
Personal Weather Stations






























Interactive Weather Map New forecast layout! Learn more

10-Day Weather Forecast

Advertisements
Track Severe Weather on mobile